Terminal Aerodrome Forecast
Issued by NWS Austin/San Antonio, TX

Current Version | Previous Version | Text Only | Print | Product List | Glossary On
Versions: 1 2 3 4 5 6 7 8 9 10 11 12 13 14
000
FTUS44 KEWX 301100
TAFAUS
TAF
KAUS 301136Z 3012/0118 VRB03KT P6SM FEW100
     FM301700 15007KT P6SM SCT050
     FM010900 17003KT 5SM BR BKN015
     FM011200 16005KT 3SM BR OVC010=

USA.gov is the U.S. government's official web portal to all federal, state and local government web resources and services.